Airfield :
LOGIN :

Register | Disclaimer

   EN    FR    IT 

 










Legend :    VFR   Marginal VFR   IFR   Intensive IFR   Very Intensive IFR
Visi :
Ceiling :
>= 8 km
>= 3000ft
5 to 8 km
1000 to 3000 ft
1500m to 5 km
500 to 1000 ft
800 to 1500m
200 to 500 ft
< 800m
< 200 ft
Symbols :   Thunderstorms  Fog  Heavy snow  Heavy precipitations  Wind > 20 kt
SIGMETs :     Misc.  Thunderstorms  Icing  Turbulence  Mountain Waves  Volcanic Ashes






- Airport Elevation : 93 ft
- IATA code : XRY


LEJR - Jerez

CURRENT METAR :
  • 071830Z 16004KT 130V200 CAVOK 24/15 Q1015

EXPIRED METARs :
  • 071800Z 17005KT 130V210 CAVOK 25/15 Q1015
  • 071730Z 17006KT 140V210 9999 FEW050 26/15 Q1015
  • 071700Z 18008KT 140V210 9999 FEW050 27/16 Q1015
  • 071630Z 15007KT 110V200 9999 FEW050 28/15 Q1015
  • 071600Z 16006KT 120V210 9999 FEW050 28/15 Q1015

TAF TAF LEJR
Valid from the 07 at 15:00 until the 08 at 15:00 UTC


071400Z 0715/0815 VRB02KT 9999 FEW050 TX30/0814Z TN18/0806Z
TEMPO 0716/0719 14010KT
BECMG 0808/0810 10010KT



MET'MAP, your aeronautical weather chart ! - Copyright ORBIFLY December 2007 - Disclaimer

ORBIFLY MET'MAP TEAM :

Programming & Development : Alexandra Zaïnal
Original concept : Baudouin d'Aumeries
Technical & hardware support : Manuel Goepfert
Assistance : Marc-Olivier Méhu




SOURCES & CREDITS :

   NOAA